Time;durP1;ratioP1;P1;durP2;ratioP2;P2;SDS_P1;SDS_P2;PMS_P1;PMS_P2;Temp;Humidity;BMP_temperature;BMP_pressure;BME280_temperature;BME280_humidity;BME280_pressure;Samples;Min_cycle;Max_cycle;Signal;HPM_P1;HPM_P2
2021/07/30 00:00:58;;;;;;;6.30;3.17;;;16.40;71.50;;;;;;5070227;28;20069;-77
2021/07/30 00:03:24;;;;;;;4.03;3.03;;;16.50;71.50;;;;;;5053546;28;20122;-76
2021/07/30 00:09:12;;;;;;;6.85;3.10;;;16.40;71.30;;;;;;5055069;28;20028;-77
2021/07/30 00:11:43;;;;;;;8.85;3.80;;;16.40;71.20;;;;;;5054713;28;20388;-77
2021/07/30 00:14:09;;;;;;;9.13;3.40;;;16.30;71.20;;;;;;5053261;28;20033;-77
2021/07/30 00:16:35;;;;;;;4.97;2.88;;;16.40;71.20;;;;;;5054606;28;20067;-77
2021/07/30 00:22:32;;;;;;;6.18;3.53;;;16.30;71.20;;;;;;5054196;28;20020;-77
2021/07/30 00:25:01;;;;;;;5.00;3.40;;;16.30;71.20;;;;;;5054489;28;20238;-76
2021/07/30 00:27:26;;;;;;;4.72;3.15;;;16.20;71.20;;;;;;5054442;28;20045;-76
2021/07/30 00:29:53;;;;;;;4.60;3.33;;;16.20;71.20;;;;;;5052975;28;20032;-76
2021/07/30 00:32:19;;;;;;;7.40;3.58;;;16.20;71.30;;;;;;5054336;28;20424;-76
2021/07/30 00:34:44;;;;;;;5.40;3.60;;;16.20;71.40;;;;;;5054234;28;20033;-77
2021/07/30 00:37:10;;;;;;;5.45;3.40;;;16.20;71.40;;;;;;5054191;28;20035;-77
2021/07/30 00:39:35;;;;;;;6.20;3.50;;;16.20;71.40;;;;;;5053079;28;20025;-77
2021/07/30 00:42:02;;;;;;;5.72;3.28;;;16.20;71.50;;;;;;5052844;28;20029;-77
2021/07/30 00:44:28;;;;;;;5.43;3.42;;;16.20;71.50;;;;;;5052691;28;20021;-77
2021/07/30 00:46:55;;;;;;;7.18;3.63;;;16.10;71.50;;;;;;5054238;28;20029;-77
2021/07/30 00:49:21;;;;;;;6.45;3.85;;;16.10;71.50;;;;;;5052626;28;20393;-77
2021/07/30 00:51:46;;;;;;;5.90;3.70;;;16.10;72.20;;;;;;5052578;28;20021;-77
2021/07/30 00:54:12;;;;;;;5.50;3.33;;;16.10;71.60;;;;;;5054230;28;20029;-77
2021/07/30 00:56:38;;;;;;;6.25;3.58;;;16.10;71.70;;;;;;5052497;28;20029;-77
2021/07/30 00:59:05;;;;;;;5.13;3.25;;;16.00;71.70;;;;;;5056344;28;20064;-77
2021/07/30 01:01:32;;;;;;;6.68;3.55;;;16.00;71.70;;;;;;5072718;28;20365;-77
2021/07/30 01:03:57;;;;;;;8.40;3.97;;;16.00;71.70;;;;;;5072411;28;20035;-76
2021/07/30 01:06:23;;;;;;;4.75;3.40;;;16.00;71.70;;;;;;5073727;28;20040;-77
2021/07/30 01:08:50;;;;;;;5.05;3.58;;;16.00;71.70;;;;;;5072282;28;20028;-77
2021/07/30 01:11:15;;;;;;;8.07;3.95;;;16.00;71.70;;;;;;5072171;28;20025;-76
2021/07/30 01:13:41;;;;;;;6.60;3.67;;;16.00;71.70;;;;;;5072172;28;20024;-76
2021/07/30 01:16:07;;;;;;;7.78;4.65;;;16.00;71.70;;;;;;5073414;28;20120;-76
2021/07/30 01:18:32;;;;;;;7.40;3.63;;;15.90;71.70;;;;;;5055439;28;20387;-77
2021/07/30 01:21:17;;;;;;;7.65;4.22;;;15.90;71.60;;;;;;5055765;28;20036;-76
2021/07/30 01:23:42;;;;;;;5.60;3.70;;;15.90;71.70;;;;;;5055262;28;20035;-77
2021/07/30 01:26:08;;;;;;;5.57;4.00;;;15.90;71.70;;;;;;5073231;28;20422;-76
2021/07/30 01:28:34;;;;;;;4.78;3.55;;;15.90;71.70;;;;;;5055275;28;20359;-76
2021/07/30 01:31:01;;;;;;;7.68;3.75;;;15.90;71.70;;;;;;5073130;28;20115;-76
2021/07/30 01:33:27;;;;;;;6.20;3.78;;;15.90;71.70;;;;;;5054780;28;20138;-77
2021/07/30 01:35:53;;;;;;;7.57;3.80;;;15.80;71.60;;;;;;5055106;28;20127;-77
2021/07/30 01:38:18;;;;;;;5.30;3.67;;;15.90;71.60;;;;;;5071662;28;20450;-77
2021/07/30 01:40:44;;;;;;;6.22;3.72;;;15.90;71.60;;;;;;5071743;28;20025;-76
2021/07/30 01:43:10;;;;;;;8.02;4.13;;;15.90;71.60;;;;;;5071700;28;20033;-76
2021/07/30 01:45:36;;;;;;;6.25;3.70;;;15.80;71.50;;;;;;5072690;28;20024;-77
2021/07/30 01:48:01;;;;;;;5.22;3.80;;;15.80;71.60;;;;;;5071764;28;20056;-76
2021/07/30 01:50:27;;;;;;;5.15;3.58;;;15.80;71.60;;;;;;5072874;28;20048;-76
2021/07/30 01:52:53;;;;;;;5.90;4.00;;;15.80;71.60;;;;;;5051959;28;20125;-76
2021/07/30 01:55:18;;;;;;;7.60;3.90;;;15.70;71.60;;;;;;5072865;28;20108;-77
2021/07/30 01:57:44;;;;;;;6.88;3.80;;;15.80;71.70;;;;;;5071762;28;20016;-77
2021/07/30 02:00:10;;;;;;;6.53;3.95;;;15.70;71.60;;;;;;5068026;28;20558;-77
2021/07/30 02:02:36;;;;;;;4.95;3.83;;;15.70;71.60;;;;;;5051578;28;20472;-76
2021/07/30 02:05:01;;;;;;;5.35;3.80;;;15.70;71.60;;;;;;5051339;28;20090;-77
2021/07/30 02:07:28;;;;;;;7.28;4.10;;;15.70;71.70;;;;;;5053056;28;20072;-77
2021/07/30 02:09:54;;;;;;;6.00;3.70;;;15.70;71.70;;;;;;5052530;28;20040;-77
2021/07/30 02:12:20;;;;;;;6.85;3.70;;;15.70;71.70;;;;;;5052595;28;20029;-77
2021/07/30 02:14:46;;;;;;;8.18;3.97;;;15.60;71.60;;;;;;5051383;28;20419;-77
2021/07/30 02:17:11;;;;;;;8.43;4.28;;;15.60;71.70;;;;;;5051236;28;20039;-76
2021/07/30 02:19:37;;;;;;;6.50;3.88;;;15.60;71.70;;;;;;5052543;28;20405;-77
2021/07/30 02:22:03;;;;;;;5.85;4.05;;;15.60;71.80;;;;;;5051212;28;20051;-78
2021/07/30 02:24:28;;;;;;;5.30;4.00;;;15.60;71.80;;;;;;5051136;28;20041;-77
2021/07/30 02:26:54;;;;;;;4.75;3.72;;;15.60;71.90;;;;;;5052382;28;20079;-77
2021/07/30 02:29:20;;;;;;;9.05;4.45;;;15.50;71.90;;;;;;5051537;28;20504;-77
2021/07/30 02:31:48;;;;;;;6.70;4.15;;;15.50;71.80;;;;;;5051133;28;20110;-77
2021/07/30 02:34:14;;;;;;;7.25;4.18;;;15.50;71.90;;;;;;5051086;28;20023;-77
2021/07/30 02:36:39;;;;;;;5.35;4.00;;;15.50;72.00;;;;;;5051050;28;20029;-77
2021/07/30 02:39:05;;;;;;;7.63;3.80;;;15.50;72.00;;;;;;5051032;28;20495;-77
2021/07/30 02:41:31;;;;;;;6.68;3.88;;;15.50;71.90;;;;;;5051098;28;20177;-77
2021/07/30 02:43:59;;;;;;;4.70;3.63;;;15.50;71.90;;;;;;5052533;28;20401;-77
2021/07/30 02:46:25;;;;;;;5.32;3.20;;;15.50;71.90;;;;;;5055626;28;20029;-77
2021/07/30 02:48:51;;;;;;;6.30;3.67;;;15.50;71.90;;;;;;5055201;28;20021;-76
2021/07/30 02:51:17;;;;;;;6.80;3.67;;;15.50;72.00;;;;;;5054910;28;20086;-76
2021/07/30 02:53:43;;;;;;;7.18;3.70;;;15.50;72.00;;;;;;5054892;28;20028;-77
2021/07/30 02:56:09;;;;;;;6.28;3.80;;;15.40;72.00;;;;;;5056241;28;20495;-77
2021/07/30 02:58:38;;;;;;;5.55;4.13;;;15.50;72.10;;;;;;5054860;28;20071;-76
2021/07/30 03:01:04;;;;;;;8.75;4.22;;;15.40;72.00;;;;;;5073065;28;20052;-76
2021/07/30 03:03:30;;;;;;;7.15;3.63;;;15.40;72.10;;;;;;5075981;28;20392;-77
2021/07/30 03:05:58;;;;;;;5.30;3.88;;;15.40;72.10;;;;;;5057921;28;20032;-77
2021/07/30 03:08:24;;;;;;;7.03;3.40;;;15.40;72.20;;;;;;5074611;28;20017;-77
2021/07/30 03:10:50;;;;;;;6.57;3.85;;;15.40;72.30;;;;;;5057890;28;20024;-76
2021/07/30 03:13:16;;;;;;;7.60;3.88;;;15.40;72.30;;;;;;5076119;28;20032;-77
2021/07/30 03:15:41;;;;;;;4.97;3.33;;;15.40;72.30;;;;;;5074383;28;20435;-77
2021/07/30 03:18:07;;;;;;;5.30;3.55;;;15.40;72.30;;;;;;5057835;28;20039;-77
2021/07/30 03:20:32;;;;;;;8.98;4.00;;;15.30;72.30;;;;;;5074299;28;20496;-77
2021/07/30 03:22:58;;;;;;;5.00;3.60;;;15.30;72.40;;;;;;5074282;28;20423;-76
2021/07/30 03:25:24;;;;;;;5.80;3.78;;;15.30;72.40;;;;;;5057653;28;20016;-76
2021/07/30 03:27:49;;;;;;;6.82;4.00;;;15.30;72.50;;;;;;5057509;28;20048;-76
2021/07/30 03:30:15;;;;;;;7.70;4.05;;;15.30;72.50;;;;;;5074155;28;20059;-76
2021/07/30 03:32:42;;;;;;;8.43;4.03;;;15.20;72.50;;;;;;5057415;28;20098;-76
2021/07/30 03:35:08;;;;;;;7.72;3.65;;;15.20;72.50;;;;;;5057497;28;20364;-76
2021/07/30 03:37:33;;;;;;;6.22;3.85;;;15.20;72.60;;;;;;5057209;28;20017;-77
2021/07/30 03:39:59;;;;;;;6.25;4.07;;;15.20;72.60;;;;;;5075414;28;20021;-77
2021/07/30 03:42:26;;;;;;;6.25;3.72;;;15.20;72.60;;;;;;5057256;28;20078;-75
2021/07/30 03:44:51;;;;;;;8.52;3.88;;;15.20;72.70;;;;;;5057211;28;20094;-77
2021/07/30 03:47:17;;;;;;;7.05;3.60;;;15.20;72.70;;;;;;5057332;28;20123;-76
2021/07/30 03:49:43;;;;;;;6.82;3.67;;;15.20;72.80;;;;;;5057299;28;20025;-77
2021/07/30 03:52:08;;;;;;;6.68;3.20;;;15.20;72.80;;;;;;5057194;28;20059;-77
2021/07/30 03:54:34;;;;;;;7.38;3.90;;;15.20;72.80;;;;;;5057079;28;20033;-76
2021/07/30 03:57:00;;;;;;;4.53;3.53;;;15.20;72.80;;;;;;5074324;28;20025;-77
2021/07/30 03:59:25;;;;;;;6.75;3.75;;;15.20;72.90;;;;;;5074813;28;20161;-77
2021/07/30 04:01:51;;;;;;;6.00;3.28;;;15.20;72.90;;;;;;5075123;28;20021;-76
2021/07/30 04:04:17;;;;;;;6.75;3.72;;;15.20;72.90;;;;;;5057189;28;20500;-76
2021/07/30 04:06:44;;;;;;;8.65;3.75;;;15.20;72.90;;;;;;5056905;28;20434;-77
2021/07/30 04:09:16;;;;;;;6.55;3.55;;;15.20;72.90;;;;;;5074214;28;20433;-77
2021/07/30 04:11:42;;;;;;;6.25;3.10;;;15.20;72.90;;;;;;5056794;28;20032;-77
2021/07/30 04:14:08;;;;;;;5.85;3.38;;;15.20;72.90;;;;;;5056764;28;20492;-78
2021/07/30 04:16:35;;;;;;;6.63;3.60;;;15.30;72.90;;;;;;5074527;28;20032;-76
2021/07/30 04:19:02;;;;;;;5.30;3.42;;;15.30;72.80;;;;;;5056646;28;20025;-75
2021/07/30 04:21:28;;;;;;;7.72;3.70;;;15.30;72.80;;;;;;5074634;28;20032;-76
2021/07/30 04:23:54;;;;;;;5.13;3.50;;;15.30;72.70;;;;;;5074501;28;20040;-76
2021/07/30 04:26:20;;;;;;;6.03;3.75;;;15.40;72.80;;;;;;5056366;28;20115;-76
2021/07/30 04:28:45;;;;;;;5.90;3.63;;;15.40;72.70;;;;;;5074480;28;20426;-76
2021/07/30 04:31:11;;;;;;;7.93;3.75;;;15.40;72.70;;;;;;5074357;28;20341;-77
2021/07/30 04:33:37;;;;;;;9.10;3.65;;;15.50;72.70;;;;;;5074208;28;20031;-77
2021/07/30 04:36:02;;;;;;;8.32;3.50;;;15.50;72.70;;;;;;5074158;28;20074;-76
2021/07/30 04:38:28;;;;;;;5.60;3.60;;;15.50;72.70;;;;;;5056232;28;20037;-77
2021/07/30 04:40:53;;;;;;;5.45;3.80;;;15.50;72.70;;;;;;5056168;28;20029;-77
2021/07/30 04:43:19;;;;;;;7.55;3.92;;;15.60;72.70;;;;;;5056129;28;20031;-77
2021/07/30 04:45:45;;;;;;;8.10;3.53;;;15.60;72.70;;;;;;5074144;28;20475;-77
2021/07/30 04:48:10;;;;;;;4.88;3.30;;;15.60;72.70;;;;;;5072992;28;20036;-77
2021/07/30 04:50:36;;;;;;;8.98;3.63;;;15.70;72.70;;;;;;5056257;28;20031;-76
2021/07/30 04:53:02;;;;;;;6.78;4.07;;;15.70;72.60;;;;;;5055985;28;20063;-77
2021/07/30 04:55:30;;;;;;;6.72;4.10;;;15.70;72.60;;;;;;5056299;28;20452;-77
2021/07/30 04:57:56;;;;;;;5.78;3.45;;;15.80;72.60;;;;;;5073896;28;20037;-77
2021/07/30 05:00:22;;;;;;;4.57;3.38;;;15.80;72.60;;;;;;5063620;28;20047;-77
2021/07/30 05:02:52;;;;;;;8.35;3.88;;;15.80;72.60;;;;;;5056174;28;20066;-76
2021/07/30 05:05:18;;;;;;;7.88;3.85;;;15.80;72.50;;;;;;5055692;28;20032;-77
2021/07/30 05:07:44;;;;;;;9.05;3.47;;;15.90;72.50;;;;;;5073372;28;20032;-76
2021/07/30 05:10:10;;;;;;;7.47;3.17;;;15.90;72.40;;;;;;5073036;28;20035;-77
2021/07/30 05:12:36;;;;;;;7.25;3.47;;;15.90;72.40;;;;;;5055811;28;20472;-77
2021/07/30 05:15:01;;;;;;;9.50;3.67;;;16.00;73.00;;;;;;5073544;28;20025;-77
2021/07/30 05:17:27;;;;;;;5.30;3.67;;;16.00;72.30;;;;;;5055497;28;20506;-77
2021/07/30 05:19:52;;;;;;;4.97;3.55;;;16.00;72.30;;;;;;5073430;28;20594;-78
2021/07/30 05:22:18;;;;;;;6.10;3.72;;;16.00;72.30;;;;;;5073458;28;20031;-77
2021/07/30 05:24:44;;;;;;;5.72;3.47;;;16.10;72.30;;;;;;5055362;28;20119;-77
2021/07/30 05:27:09;;;;;;;6.45;3.80;;;16.10;72.30;;;;;;5055877;28;20118;-77
2021/07/30 05:33:03;;;;;;;6.28;3.70;;;16.10;72.30;;;;;;5073452;28;20077;-78
2021/07/30 05:35:29;;;;;;;7.20;3.60;;;16.20;72.30;;;;;;5055394;28;20144;-77
2021/07/30 05:37:54;;;;;;;5.90;3.38;;;16.20;72.90;;;;;;5055564;28;20111;-78
2021/07/30 05:40:20;;;;;;;5.28;3.95;;;16.30;72.40;;;;;;5055159;28;20488;-78
2021/07/30 05:42:46;;;;;;;7.43;4.10;;;16.30;72.30;;;;;;5055221;28;20028;-78
2021/07/30 05:45:11;;;;;;;6.57;3.33;;;16.40;72.30;;;;;;5054883;28;20531;-75
2021/07/30 05:47:37;;;;;;;7.68;3.83;;;16.40;72.10;;;;;;5055010;28;20123;-78
2021/07/30 05:50:03;;;;;;;7.20;3.70;;;16.50;72.00;;;;;;5055291;28;20463;-77
2021/07/30 05:52:28;;;;;;;6.72;4.10;;;16.60;71.90;;;;;;5055260;28;20028;-78
2021/07/30 05:54:54;;;;;;;9.05;3.70;;;16.70;71.80;;;;;;5072897;28;20036;-77
2021/07/30 05:57:19;;;;;;;6.03;4.15;;;16.70;71.60;;;;;;5054985;28;20040;-77
2021/07/30 05:59:48;;;;;;;5.18;3.63;;;16.80;71.60;;;;;;5072885;28;20500;-78
2021/07/30 06:02:13;;;;;;;6.50;3.83;;;16.90;71.50;;;;;;5054752;28;20426;-78
2021/07/30 06:04:39;;;;;;;5.30;3.88;;;16.90;71.40;;;;;;5054725;28;20024;-76
2021/07/30 06:07:04;;;;;;;6.20;3.63;;;17.00;71.30;;;;;;5054604;28;20099;-76
2021/07/30 06:09:30;;;;;;;5.88;3.70;;;17.10;71.20;;;;;;5054703;28;20021;-76
2021/07/30 06:11:55;;;;;;;4.82;3.45;;;17.20;71.10;;;;;;5071751;28;20466;-76
2021/07/30 06:14:21;;;;;;;9.15;3.85;;;17.30;71.00;;;;;;5072511;28;20451;-76
2021/07/30 06:16:47;;;;;;;8.32;3.63;;;17.40;70.90;;;;;;5072549;28;20024;-76
2021/07/30 06:19:12;;;;;;;6.43;3.03;;;17.40;70.70;;;;;;5070919;28;20029;-76
2021/07/30 06:21:38;;;;;;;9.15;3.83;;;17.50;70.50;;;;;;5054160;28;20032;-77
2021/07/30 06:24:04;;;;;;;6.18;3.75;;;17.60;70.50;;;;;;5054445;28;20059;-77
2021/07/30 06:26:29;;;;;;;7.80;4.10;;;17.60;70.40;;;;;;5054528;28;20030;-78
2021/07/30 06:28:55;;;;;;;6.38;4.05;;;17.70;70.40;;;;;;5054541;28;20414;-76
2021/07/30 06:31:21;;;;;;;6.57;3.92;;;17.70;70.30;;;;;;5054645;28;20056;-76
2021/07/30 06:33:46;;;;;;;6.43;3.70;;;17.70;70.30;;;;;;5072604;28;20487;-77
2021/07/30 06:36:16;;;;;;;4.75;3.80;;;17.80;70.30;;;;;;5054341;28;20382;-77
2021/07/30 06:38:41;;;;;;;9.02;4.57;;;17.80;70.20;;;;;;5072736;28;20029;-77
2021/07/30 06:41:07;;;;;;;6.90;4.25;;;17.90;70.10;;;;;;5072548;28;20040;-77
2021/07/30 06:43:32;;;;;;;5.65;4.05;;;17.90;70.00;;;;;;5054488;28;20503;-77
2021/07/30 06:49:20;;;;;;;6.05;3.95;;;18.10;69.90;;;;;;5072619;28;20100;-77
2021/07/30 06:51:45;;;;;;;5.45;3.75;;;18.20;69.80;;;;;;5054397;28;20044;-77
2021/07/30 06:54:11;;;;;;;5.55;4.10;;;18.20;69.70;;;;;;5054334;28;20029;-77
2021/07/30 06:56:37;;;;;;;8.02;3.75;;;18.30;69.60;;;;;;5072360;28;20033;-77
2021/07/30 06:59:02;;;;;;;9.57;4.25;;;18.40;69.50;;;;;;5072054;28;20068;-78
2021/07/30 07:01:28;;;;;;;7.15;4.65;;;18.50;69.40;;;;;;5070970;28;20106;-77
2021/07/30 07:03:54;;;;;;;8.60;4.32;;;18.50;69.30;;;;;;5072311;28;20032;-77
2021/07/30 07:06:19;;;;;;;7.20;4.32;;;18.60;69.10;;;;;;5054415;28;20420;-77
2021/07/30 07:08:45;;;;;;;8.18;3.83;;;18.70;69.00;;;;;;5071098;28;20032;-78
2021/07/30 07:11:11;;;;;;;7.80;4.35;;;18.80;68.90;;;;;;5072532;28;20020;-77
2021/07/30 07:13:37;;;;;;;5.63;3.60;;;18.90;68.70;;;;;;5054099;28;20159;-78
2021/07/30 07:16:04;;;;;;;7.45;3.47;;;18.90;68.50;;;;;;5054055;28;20116;-77
2021/07/30 07:18:32;;;;;;;5.32;3.42;;;18.90;68.40;;;;;;5072016;28;20032;-78
2021/07/30 07:20:58;;;;;;;6.90;3.60;;;19.00;68.40;;;;;;5053957;28;20028;-77
2021/07/30 07:23:23;;;;;;;7.57;3.42;;;19.10;68.20;;;;;;5072095;28;20035;-78
2021/07/30 07:25:49;;;;;;;6.13;3.40;;;19.20;68.10;;;;;;5053862;28;20074;-77
2021/07/30 07:28:15;;;;;;;5.70;3.28;;;19.20;68.00;;;;;;5071974;28;20365;-77
2021/07/30 07:30:40;;;;;;;5.95;3.17;;;19.20;67.90;;;;;;5071987;28;20488;-77
2021/07/30 07:33:06;;;;;;;7.05;3.50;;;19.30;67.90;;;;;;5056130;28;20029;-77
2021/07/30 07:35:32;;;;;;;5.30;3.33;;;19.30;67.80;;;;;;5073978;28;20071;-77
2021/07/30 07:38:05;;;;;;;5.93;3.05;;;19.30;67.80;;;;;;5057361;28;20047;-77
2021/07/30 07:40:31;;;;;;;4.82;3.00;;;19.30;67.70;;;;;;5075228;28;20029;-77
2021/07/30 07:42:59;;;;;;;7.90;3.78;;;19.30;67.60;;;;;;5074318;28;20028;-76
2021/07/30 07:45:26;;;;;;;8.23;3.53;;;19.40;67.70;;;;;;5057044;28;20024;-76
2021/07/30 07:47:52;;;;;;;6.80;3.30;;;19.40;67.60;;;;;;5074981;28;20123;-76
2021/07/30 07:50:18;;;;;;;7.72;3.20;;;19.40;67.60;;;;;;5057029;28;20062;-77
2021/07/30 07:52:44;;;;;;;7.28;3.35;;;19.50;67.50;;;;;;5057055;28;20063;-77
2021/07/30 07:55:10;;;;;;;9.80;4.07;;;19.60;67.50;;;;;;5074942;28;20032;-77
2021/07/30 07:57:39;;;;;;;5.75;3.40;;;19.60;68.10;;;;;;5075098;28;20032;-75
2021/07/30 08:00:06;;;;;;;5.55;3.20;;;19.70;67.50;;;;;;5056750;28;20037;-75
2021/07/30 08:02:31;;;;;;;8.93;6.68;;;19.80;67.50;;;;;;5074842;28;20048;-75
2021/07/30 08:04:57;;;;;;;9.40;4.80;;;19.80;67.40;;;;;;5057095;28;20020;-75
2021/07/30 08:07:22;;;;;;;9.57;3.95;;;19.90;67.30;;;;;;5074746;28;20028;-75
2021/07/30 08:09:50;;;;;;;6.60;3.55;;;20.00;67.30;;;;;;5056747;28;20391;-76
2021/07/30 08:12:15;;;;;;;7.68;4.07;;;20.10;67.30;;;;;;5056587;28;20373;-75
2021/07/30 08:14:41;;;;;;;8.30;3.85;;;20.20;67.20;;;;;;5074620;28;20012;-75
2021/07/30 08:17:06;;;;;;;4.88;3.30;;;20.20;67.10;;;;;;5074637;28;20055;-75
2021/07/30 08:19:33;;;;;;;6.38;3.70;;;20.30;67.70;;;;;;5056592;28;20116;-75
2021/07/30 08:22:00;;;;;;;7.05;3.38;;;20.40;67.00;;;;;;5056615;28;20028;-74
2021/07/30 08:24:25;;;;;;;5.88;3.15;;;20.50;66.90;;;;;;5074466;28;20533;-75
2021/07/30 08:26:51;;;;;;;4.30;2.95;;;20.60;66.80;;;;;;5074503;28;20056;-75
2021/07/30 08:29:16;;;;;;;6.50;3.17;;;20.70;66.70;;;;;;5074400;28;20019;-75
2021/07/30 08:31:42;;;;;;;5.35;2.85;;;20.80;66.50;;;;;;5074298;28;20028;-76
2021/07/30 08:34:10;;;;;;;4.70;2.50;;;20.90;66.40;;;;;;5074391;28;20385;-74
2021/07/30 08:36:36;;;;;;;5.22;2.55;;;21.00;66.00;;;;;;5074019;28;20024;-75
2021/07/30 08:39:01;;;;;;;6.30;2.63;;;21.10;65.50;;;;;;5056208;28;20047;-77
2021/07/30 08:41:27;;;;;;;4.45;2.33;;;21.10;65.10;;;;;;5056146;28;20025;-78
2021/07/30 08:47:21;;;;;;;5.25;2.22;;;21.30;64.60;;;;;;5074172;28;20044;-77
2021/07/30 08:49:46;;;;;;;5.20;2.35;;;21.30;64.50;;;;;;5070875;28;20028;-75
2021/07/30 08:52:12;;;;;;;4.47;2.33;;;21.30;64.40;;;;;;5055884;28;20372;-75
2021/07/30 08:54:39;;;;;;;3.70;1.80;;;21.30;64.20;;;;;;5055618;28;20032;-75
2021/07/30 08:57:12;;;;;;;3.58;2.03;;;21.40;64.20;;;;;;5073658;28;20379;-75
2021/07/30 08:59:41;;;;;;;4.47;1.90;;;21.40;64.00;;;;;;5073467;28;20055;-74
2021/07/30 09:02:08;;;;;;;2.47;1.90;;;21.40;63.70;;;;;;5055935;28;20029;-74
2021/07/30 09:04:33;;;;;;;3.40;2.30;;;21.50;63.40;;;;;;5055482;28;20040;-77
2021/07/30 09:07:02;;;;;;;3.63;2.13;;;21.50;63.10;;;;;;5055530;28;20498;-77
2021/07/30 09:09:32;;;;;;;5.63;2.67;;;21.60;63.00;;;;;;5073626;28;20021;-73
2021/07/30 09:12:03;;;;;;;3.35;2.10;;;21.70;62.80;;;;;;5073468;28;20028;-76
2021/07/30 09:14:41;;;;;;;4.30;2.20;;;21.70;62.60;;;;;;5055348;28;20099;-74
2021/07/30 09:17:07;;;;;;;3.83;1.92;;;21.80;62.50;;;;;;5073324;28;20078;-74
2021/07/30 09:19:34;;;;;;;5.07;2.00;;;21.90;62.30;;;;;;5073180;28;20021;-74
2021/07/30 09:22:08;;;;;;;3.55;2.20;;;21.90;62.00;;;;;;5073167;28;20048;-75
2021/07/30 09:24:36;;;;;;;2.47;1.80;;;22.00;61.80;;;;;;5055291;28;20031;-75
2021/07/30 09:27:02;;;;;;;4.55;2.10;;;22.00;61.60;;;;;;5055448;28;20475;-75
2021/07/30 09:29:31;;;;;;;4.47;2.10;;;22.10;61.50;;;;;;5073319;28;20029;-75
2021/07/30 09:31:59;;;;;;;3.78;2.20;;;22.10;62.00;;;;;;5073130;28;20076;-75
2021/07/30 09:34:48;;;;;;;1.85;1.70;;;22.20;61.20;;;;;;5073055;28;20024;-75
2021/07/30 09:37:23;;;;;;;3.60;1.98;;;22.30;61.00;;;;;;5072870;28;20020;-74
2021/07/30 09:39:52;;;;;;;3.15;1.98;;;22.30;60.80;;;;;;5072891;28;20099;-75
2021/07/30 09:42:22;;;;;;;3.65;1.80;;;22.40;60.80;;;;;;5054947;28;20020;-76
2021/07/30 09:44:52;;;;;;;2.00;1.70;;;22.50;60.60;;;;;;5054957;28;20024;-76
2021/07/30 09:47:24;;;;;;;4.63;2.05;;;22.60;60.30;;;;;;5054762;28;20029;-76
2021/07/30 09:49:55;;;;;;;3.42;2.38;;;22.70;60.20;;;;;;5055334;28;20032;-75
2021/07/30 09:52:34;;;;;;;2.70;1.90;;;22.80;59.80;;;;;;5055199;28;20133;-79
2021/07/30 09:55:01;;;;;;;3.65;1.77;;;23.00;59.60;;;;;;5054186;28;20432;-78
2021/07/30 09:57:38;;;;;;;2.88;1.83;;;23.10;59.50;;;;;;5055253;28;20064;-77
2021/07/30 10:00:08;;;;;;;4.88;1.70;;;23.20;59.00;;;;;;5051341;28;20041;-77
2021/07/30 10:02:35;;;;;;;4.43;2.10;;;23.30;58.70;;;;;;5051326;28;20021;-77
2021/07/30 10:05:04;;;;;;;4.40;2.22;;;23.40;58.40;;;;;;5051518;28;20029;-77
2021/07/30 10:07:31;;;;;;;6.55;2.35;;;23.50;58.20;;;;;;5051252;28;20497;-77
2021/07/30 10:12:29;;;;;;;3.88;1.95;;;23.60;57.90;;;;;;5052982;28;20086;-77
2021/07/30 10:14:55;;;;;;;3.45;2.40;;;23.60;57.60;;;;;;5051513;28;20021;-77
2021/07/30 10:17:32;;;;;;;2.72;2.10;;;23.80;57.60;;;;;;5051203;28;20025;-77
2021/07/30 10:20:03;;;;;;;3.35;1.70;;;23.80;57.30;;;;;;5051330;28;20024;-77
2021/07/30 10:22:38;;;;;;;3.80;2.28;;;23.90;57.20;;;;;;5052515;28;20150;-77
2021/07/30 10:25:05;;;;;;;3.20;1.80;;;24.00;56.80;;;;;;5051395;28;20119;-78
2021/07/30 10:27:31;;;;;;;2.78;1.90;;;24.10;56.50;;;;;;5052634;28;20027;-77
2021/07/30 10:30:11;;;;;;;3.08;2.00;;;24.20;56.50;;;;;;5051130;28;20102;-77
2021/07/30 10:32:51;;;;;;;2.55;2.20;;;24.20;56.40;;;;;;5052368;28;20036;-77
2021/07/30 10:35:26;;;;;;;2.35;1.88;;;24.20;56.00;;;;;;5052394;28;20025;-77
2021/07/30 10:38:12;;;;;;;3.65;1.95;;;24.20;56.10;;;;;;5052441;28;20025;-79
2021/07/30 10:40:41;;;;;;;2.78;2.15;;;24.20;56.40;;;;;;5051152;28;20033;-79
2021/07/30 10:43:14;;;;;;;2.40;1.90;;;24.20;56.40;;;;;;5051416;28;20021;-79
2021/07/30 10:45:41;;;;;;;3.00;2.00;;;24.20;56.40;;;;;;5051118;28;20461;-77
2021/07/30 10:48:22;;;;;;;3.53;2.00;;;24.30;56.40;;;;;;5050859;28;20437;-77
2021/07/30 10:50:55;;;;;;;4.80;2.20;;;24.30;56.10;;;;;;5052370;28;20032;-77
2021/07/30 10:53:36;;;;;;;1.92;1.70;;;24.30;56.10;;;;;;5050789;28;20079;-77
2021/07/30 10:56:14;;;;;;;3.13;1.70;;;24.30;56.10;;;;;;5050836;28;20021;-77
2021/07/30 10:58:40;;;;;;;2.55;1.70;;;24.40;56.20;;;;;;5050830;28;20025;-77
2021/07/30 11:01:06;;;;;;;2.55;1.83;;;24.40;56.20;;;;;;5069296;28;20186;-77
2021/07/30 11:03:52;;;;;;;3.22;2.13;;;24.60;55.90;;;;;;5070970;28;20033;-78
2021/07/30 11:06:37;;;;;;;4.47;2.28;;;24.70;55.40;;;;;;5055264;28;20488;-77
2021/07/30 11:09:06;;;;;;;2.03;1.83;;;24.70;55.30;;;;;;5057832;28;20027;-77
2021/07/30 11:11:57;;;;;;;1.88;1.75;;;24.70;55.30;;;;;;5057886;28;20103;-78
2021/07/30 11:14:28;;;;;;;1.90;1.80;;;24.80;55.20;;;;;;5057921;28;20024;-77
2021/07/30 11:17:02;;;;;;;2.28;2.03;;;24.90;55.10;;;;;;5057730;28;20031;-77
2021/07/30 11:19:32;;;;;;;3.40;2.00;;;25.00;55.10;;;;;;5057590;28;20033;-78
2021/07/30 11:22:00;;;;;;;2.55;1.70;;;25.10;54.90;;;;;;5057973;28;20076;-78
2021/07/30 11:24:25;;;;;;;3.05;2.00;;;25.10;54.70;;;;;;5057409;28;20024;-78
2021/07/30 11:26:51;;;;;;;4.07;2.10;;;25.20;54.40;;;;;;5075416;28;20032;-77
2021/07/30 11:29:21;;;;;;;2.38;1.83;;;25.20;54.10;;;;;;5075471;28;20070;-77
2021/07/30 11:31:53;;;;;;;2.70;1.90;;;25.20;54.10;;;;;;5075427;28;20016;-77
2021/07/30 11:34:23;;;;;;;3.67;2.10;;;25.20;54.00;;;;;;5075456;28;20498;-78
2021/07/30 11:36:51;;;;;;;2.67;2.03;;;25.40;53.90;;;;;;5075432;28;20380;-78
2021/07/30 11:39:17;;;;;;;2.85;1.75;;;25.40;53.70;;;;;;5057328;28;20089;-78
2021/07/30 11:41:48;;;;;;;3.13;1.92;;;25.40;53.60;;;;;;5074145;28;20025;-78
2021/07/30 11:44:13;;;;;;;2.60;1.75;;;25.50;53.60;;;;;;5075148;28;20025;-77
2021/07/30 11:46:40;;;;;;;2.92;2.05;;;25.60;53.30;;;;;;5074183;28;20073;-77
2021/07/30 11:49:07;;;;;;;3.53;1.83;;;25.70;53.30;;;;;;5057578;28;20017;-77
2021/07/30 11:51:39;;;;;;;2.47;1.60;;;25.90;53.30;;;;;;5057049;28;20027;-77
2021/07/30 11:54:04;;;;;;;3.20;1.60;;;26.10;53.10;;;;;;5075039;28;20013;-79
2021/07/30 11:56:42;;;;;;;2.58;1.58;;;26.20;52.90;;;;;;5057042;28;20511;-76
2021/07/30 11:59:07;;;;;;;2.35;1.85;;;26.20;52.80;;;;;;5032689;28;20033;-79
2021/07/30 12:01:33;;;;;;;2.17;1.70;;;26.30;52.80;;;;;;5032741;28;20052;-76
2021/07/30 12:04:12;;;;;;;2.20;1.73;;;26.20;52.80;;;;;;5032868;28;20519;-75
2021/07/30 12:06:46;;;;;;;4.25;1.67;;;26.30;52.80;;;;;;5032639;28;20056;-77
2021/07/30 12:09:13;;;;;;;;;;;26.30;52.70;;;;;;5033363;28;20044;-78
2021/07/30 12:15:01;;;;;;;1.88;1.67;;;26.30;52.80;;;;;;5032702;28;20071;-75
2021/07/30 12:17:31;;;;;;;2.35;1.95;;;26.30;52.70;;;;;;5032012;28;20440;-76
2021/07/30 12:20:04;;;;;;;2.95;2.20;;;26.20;52.50;;;;;;5032247;28;20037;-78
2021/07/30 12:23:01;;;;;;;4.10;2.20;;;26.10;52.50;;;;;;5032474;28;20032;-77
2021/07/30 12:25:35;;;;;;;2.55;2.00;;;25.90;52.50;;;;;;5014920;28;20037;-77
2021/07/30 12:28:10;;;;;;;2.40;1.92;;;25.90;52.60;;;;;;5032093;28;20033;-76
2021/07/30 12:30:36;;;;;;;3.30;2.25;;;25.90;52.70;;;;;;5046826;28;20037;-76
2021/07/30 12:33:20;;;;;;;2.08;1.88;;;25.90;52.70;;;;;;5054097;28;20056;-76
2021/07/30 12:35:45;;;;;;;2.08;1.85;;;25.90;52.70;;;;;;5053914;28;20024;-77
2021/07/30 12:38:14;;;;;;;2.10;1.90;;;25.70;52.70;;;;;;5054250;28;20114;-77
2021/07/30 12:40:40;;;;;;;2.95;2.15;;;25.60;52.80;;;;;;5052918;28;20071;-78
2021/07/30 12:43:16;;;;;;;3.13;1.90;;;25.40;52.80;;;;;;5054126;28;20447;-79
2021/07/30 12:45:49;;;;;;;1.80;1.70;;;25.20;53.10;;;;;;5053101;28;20021;-77
2021/07/30 12:48:19;;;;;;;2.17;1.98;;;25.10;53.40;;;;;;5054037;28;20361;-77
2021/07/30 12:50:46;;;;;;;2.10;1.90;;;24.90;53.70;;;;;;5052646;28;20364;-77
2021/07/30 12:53:19;;;;;;;2.08;1.90;;;24.80;54.10;;;;;;5052677;28;20028;-77
2021/07/30 12:59:06;;;;;;;3.35;2.28;;;24.50;55.30;;;;;;5054731;28;20047;-78
2021/07/30 13:01:32;;;;;;;2.80;2.17;;;24.40;56.80;;;;;;5055932;28;20547;-77
2021/07/30 13:04:01;;;;;;;3.40;2.50;;;24.30;56.50;;;;;;5055731;28;20025;-77
2021/07/30 13:09:51;;;;;;;3.00;2.10;;;24.30;56.60;;;;;;5073960;28;20502;-77
2021/07/30 13:12:18;;;;;;;3.33;2.40;;;24.20;56.30;;;;;;5055559;28;20020;-77
2021/07/30 13:14:52;;;;;;;3.35;2.10;;;24.20;56.00;;;;;;5055572;28;20032;-76
2021/07/30 13:17:20;;;;;;;2.78;2.25;;;24.30;55.80;;;;;;5055531;28;20028;-76
2021/07/30 13:19:46;;;;;;;2.20;2.00;;;24.50;55.60;;;;;;5073341;28;20056;-76